Decoded Metar for BGTL (THULE in GREENLAND) (IATA:THU) | Meteo·Mobile Aviation Weather
aviador You're here:

BGTL Decoded Metar

THULE in GREENLAND
Report Time2018-08-19 04:56:00
UTC Time2018-08-19 05:27:26
Flight Rules vfr VFR
Wind150° at 09 kt
W.Decomp.*RWY 26: 4.6 kt HW 7.7 kt LCW
W.Rank150° ranks 11
Current wind is below 150° avg. (15.5)
Visibility9999 m
Phenomena:N/A
Clouds:Overcast 065 Hf
Expected CloudBase > 800 ft AGL from Temp-Dew spread
Ceiling6,500 ft
Temp06°C (ISA -8)
Dew Point04°C (87% RH)
AAT1.4°C
QNH1003 hPa
Density Alt-318 ft
Elevation253 ft
Report Wrong Elevation
Raw Report
BGTL 190456Z AUTO 15009KT 9999 OVC065 06/04 A2962 RMK AO2 SLP014
T00570037 PNO TSNO $=

Extra information for BGTL:More info

Metar Taf Metar & Taf Last 4 Metars F.Rules Stats Wind Profile Meteogram Temp Stats Airport Information Weather charts Add Link Nearby VenuesMetar ALERT Operation Metar Decoded Social comments